sensor_id;sensor_type;location;lat;lon;timestamp;temperature;humidity
76613;DHT22;65507;48.454;-2.058;2024-01-30T00:01:43;13.20;89.70
76613;DHT22;65507;48.454;-2.058;2024-01-30T00:04:08;13.20;89.70
76613;DHT22;65507;48.454;-2.058;2024-01-30T00:06:34;13.20;89.70
76613;DHT22;65507;48.454;-2.058;2024-01-30T00:09:00;13.20;89.70
76613;DHT22;65507;48.454;-2.058;2024-01-30T00:11:25;13.20;89.70
76613;DHT22;65507;48.454;-2.058;2024-01-30T00:13:52;13.10;89.70
76613;DHT22;65507;48.454;-2.058;2024-01-30T00:16:21;13.10;89.70
76613;DHT22;65507;48.454;-2.058;2024-01-30T00:18:48;13.10;89.80
76613;DHT22;65507;48.454;-2.058;2024-01-30T00:21:14;13.10;89.90
76613;DHT22;65507;48.454;-2.058;2024-01-30T00:23:39;13.00;89.90
76613;DHT22;65507;48.454;-2.058;2024-01-30T00:26:05;13.00;90.00
76613;DHT22;65507;48.454;-2.058;2024-01-30T00:28:31;13.00;89.80
76613;DHT22;65507;48.454;-2.058;2024-01-30T00:30:57;13.00;89.80
76613;DHT22;65507;48.454;-2.058;2024-01-30T00:33:22;13.00;90.20
76613;DHT22;65507;48.454;-2.058;2024-01-30T00:35:48;13.00;89.70
76613;DHT22;65507;48.454;-2.058;2024-01-30T00:38:14;13.00;89.70
76613;DHT22;65507;48.454;-2.058;2024-01-30T00:40:39;13.00;89.70
76613;DHT22;65507;48.454;-2.058;2024-01-30T00:43:05;13.00;89.60
76613;DHT22;65507;48.454;-2.058;2024-01-30T00:45:31;13.00;89.60
76613;DHT22;65507;48.454;-2.058;2024-01-30T00:47:57;12.90;89.60
76613;DHT22;65507;48.454;-2.058;2024-01-30T00:50:22;12.90;89.60
76613;DHT22;65507;48.454;-2.058;2024-01-30T00:52:48;12.90;89.60
76613;DHT22;65507;48.454;-2.058;2024-01-30T00:55:14;12.80;89.50
76613;DHT22;65507;48.454;-2.058;2024-01-30T00:57:40;12.80;89.60
76613;DHT22;65507;48.454;-2.058;2024-01-30T01:00:06;12.80;89.50
76613;DHT22;65507;48.454;-2.058;2024-01-30T01:02:34;12.80;89.50
76613;DHT22;65507;48.454;-2.058;2024-01-30T01:05:00;13.20;89.80
76613;DHT22;65507;48.454;-2.058;2024-01-30T01:07:26;12.80;89.50
76613;DHT22;65507;48.454;-2.058;2024-01-30T01:09:52;12.70;89.50
76613;DHT22;65507;48.454;-2.058;2024-01-30T01:12:17;12.70;89.40
76613;DHT22;65507;48.454;-2.058;2024-01-30T01:14:43;12.70;90.10
76613;DHT22;65507;48.454;-2.058;2024-01-30T01:17:09;12.70;89.40
76613;DHT22;65507;48.454;-2.058;2024-01-30T01:19:34;12.60;89.30
76613;DHT22;65507;48.454;-2.058;2024-01-30T01:22:00;12.60;89.30
76613;DHT22;65507;48.454;-2.058;2024-01-30T01:24:26;12.60;89.20
76613;DHT22;65507;48.454;-2.058;2024-01-30T01:26:51;12.60;89.10
76613;DHT22;65507;48.454;-2.058;2024-01-30T01:29:17;12.60;89.00
76613;DHT22;65507;48.454;-2.058;2024-01-30T01:31:43;12.60;89.00
76613;DHT22;65507;48.454;-2.058;2024-01-30T01:34:12;12.70;88.90
76613;DHT22;65507;48.454;-2.058;2024-01-30T01:36:39;12.60;88.80
76613;DHT22;65507;48.454;-2.058;2024-01-30T01:39:04;12.60;88.80
76613;DHT22;65507;48.454;-2.058;2024-01-30T01:41:33;12.60;88.70
76613;DHT22;65507;48.454;-2.058;2024-01-30T01:43:59;12.60;88.70
76613;DHT22;65507;48.454;-2.058;2024-01-30T01:46:30;12.50;88.60
76613;DHT22;65507;48.454;-2.058;2024-01-30T01:48:58;12.50;88.60
76613;DHT22;65507;48.454;-2.058;2024-01-30T01:51:26;12.40;88.80
76613;DHT22;65507;48.454;-2.058;2024-01-30T01:53:54;12.30;88.80
76613;DHT22;65507;48.454;-2.058;2024-01-30T01:56:20;12.20;89.00
76613;DHT22;65507;48.454;-2.058;2024-01-30T01:58:46;12.20;89.10
76613;DHT22;65507;48.454;-2.058;2024-01-30T02:01:13;12.00;89.20
76613;DHT22;65507;48.454;-2.058;2024-01-30T02:03:40;12.00;89.20
76613;DHT22;65507;48.454;-2.058;2024-01-30T02:06:06;12.00;89.20
76613;DHT22;65507;48.454;-2.058;2024-01-30T02:08:32;11.90;89.10
76613;DHT22;65507;48.454;-2.058;2024-01-30T02:10:59;11.90;89.10
76613;DHT22;65507;48.454;-2.058;2024-01-30T02:13:25;11.90;89.00
76613;DHT22;65507;48.454;-2.058;2024-01-30T02:15:53;11.90;89.00
76613;DHT22;65507;48.454;-2.058;2024-01-30T02:18:20;11.90;88.80
76613;DHT22;65507;48.454;-2.058;2024-01-30T02:20:48;11.90;88.80
76613;DHT22;65507;48.454;-2.058;2024-01-30T02:23:15;11.80;88.80
76613;DHT22;65507;48.454;-2.058;2024-01-30T02:25:42;11.80;88.80
76613;DHT22;65507;48.454;-2.058;2024-01-30T02:28:13;11.70;88.70
76613;DHT22;65507;48.454;-2.058;2024-01-30T02:30:39;11.70;88.70
76613;DHT22;65507;48.454;-2.058;2024-01-30T02:33:05;11.70;88.60
76613;DHT22;65507;48.454;-2.058;2024-01-30T02:35:31;11.70;88.60
76613;DHT22;65507;48.454;-2.058;2024-01-30T02:37:56;11.60;88.60
76613;DHT22;65507;48.454;-2.058;2024-01-30T02:40:22;11.60;88.60
76613;DHT22;65507;48.454;-2.058;2024-01-30T02:42:48;11.60;88.60
76613;DHT22;65507;48.454;-2.058;2024-01-30T02:45:13;11.60;88.60
76613;DHT22;65507;48.454;-2.058;2024-01-30T02:47:40;11.60;88.50
76613;DHT22;65507;48.454;-2.058;2024-01-30T02:50:06;11.50;88.30
76613;DHT22;65507;48.454;-2.058;2024-01-30T02:52:32;11.50;88.40
76613;DHT22;65507;48.454;-2.058;2024-01-30T02:54:58;11.50;88.40
76613;DHT22;65507;48.454;-2.058;2024-01-30T02:57:23;11.40;88.40
76613;DHT22;65507;48.454;-2.058;2024-01-30T02:59:49;11.40;88.50
76613;DHT22;65507;48.454;-2.058;2024-01-30T03:02:15;11.40;88.40
76613;DHT22;65507;48.454;-2.058;2024-01-30T03:04:41;11.30;88.40
76613;DHT22;65507;48.454;-2.058;2024-01-30T03:07:07;11.30;88.40
76613;DHT22;65507;48.454;-2.058;2024-01-30T03:09:33;11.30;88.40
76613;DHT22;65507;48.454;-2.058;2024-01-30T03:11:59;11.20;88.50
76613;DHT22;65507;48.454;-2.058;2024-01-30T03:14:24;11.20;88.50
76613;DHT22;65507;48.454;-2.058;2024-01-30T03:16:50;11.20;88.50
76613;DHT22;65507;48.454;-2.058;2024-01-30T03:19:16;11.20;88.40
76613;DHT22;65507;48.454;-2.058;2024-01-30T03:21:41;11.20;88.20
76613;DHT22;65507;48.454;-2.058;2024-01-30T03:24:07;11.20;88.00
76613;DHT22;65507;48.454;-2.058;2024-01-30T03:26:33;11.20;88.00
76613;DHT22;65507;48.454;-2.058;2024-01-30T03:28:58;11.30;87.90
76613;DHT22;65507;48.454;-2.058;2024-01-30T03:31:24;11.30;87.70
76613;DHT22;65507;48.454;-2.058;2024-01-30T03:33:50;11.30;87.60
76613;DHT22;65507;48.454;-2.058;2024-01-30T03:36:15;11.30;87.50
76613;DHT22;65507;48.454;-2.058;2024-01-30T03:38:41;11.40;87.50
76613;DHT22;65507;48.454;-2.058;2024-01-30T03:41:10;11.40;87.30
76613;DHT22;65507;48.454;-2.058;2024-01-30T03:43:36;11.40;87.20
76613;DHT22;65507;48.454;-2.058;2024-01-30T03:46:02;11.50;87.20
76613;DHT22;65507;48.454;-2.058;2024-01-30T03:48:28;11.40;87.10
76613;DHT22;65507;48.454;-2.058;2024-01-30T03:50:54;11.50;87.10
76613;DHT22;65507;48.454;-2.058;2024-01-30T03:53:20;11.50;87.10
76613;DHT22;65507;48.454;-2.058;2024-01-30T03:55:46;11.50;87.20
76613;DHT22;65507;48.454;-2.058;2024-01-30T03:58:11;11.50;87.10
76613;DHT22;65507;48.454;-2.058;2024-01-30T04:00:37;11.50;87.00
76613;DHT22;65507;48.454;-2.058;2024-01-30T04:03:03;11.50;87.00
76613;DHT22;65507;48.454;-2.058;2024-01-30T04:05:29;11.50;87.00
76613;DHT22;65507;48.454;-2.058;2024-01-30T04:07:54;11.40;87.00
76613;DHT22;65507;48.454;-2.058;2024-01-30T04:10:20;11.40;87.00
76613;DHT22;65507;48.454;-2.058;2024-01-30T04:12:46;11.40;87.00
76613;DHT22;65507;48.454;-2.058;2024-01-30T04:15:11;11.40;87.00
76613;DHT22;65507;48.454;-2.058;2024-01-30T04:17:39;11.30;87.00
76613;DHT22;65507;48.454;-2.058;2024-01-30T04:20:05;11.30;87.00
76613;DHT22;65507;48.454;-2.058;2024-01-30T04:22:31;11.20;87.10
76613;DHT22;65507;48.454;-2.058;2024-01-30T04:24:57;11.10;87.20
76613;DHT22;65507;48.454;-2.058;2024-01-30T04:27:22;11.10;87.20
76613;DHT22;65507;48.454;-2.058;2024-01-30T04:29:48;11.10;87.30
76613;DHT22;65507;48.454;-2.058;2024-01-30T04:32:14;11.10;87.30
76613;DHT22;65507;48.454;-2.058;2024-01-30T04:34:40;11.00;87.20
76613;DHT22;65507;48.454;-2.058;2024-01-30T04:37:05;11.00;87.20
76613;DHT22;65507;48.454;-2.058;2024-01-30T04:39:33;11.00;87.20
76613;DHT22;65507;48.454;-2.058;2024-01-30T04:41:59;11.00;87.10
76613;DHT22;65507;48.454;-2.058;2024-01-30T04:44:25;11.00;87.00
76613;DHT22;65507;48.454;-2.058;2024-01-30T04:46:50;11.00;86.90
76613;DHT22;65507;48.454;-2.058;2024-01-30T04:49:16;11.00;86.70
76613;DHT22;65507;48.454;-2.058;2024-01-30T04:51:42;11.10;86.70
76613;DHT22;65507;48.454;-2.058;2024-01-30T04:54:08;11.10;86.70
76613;DHT22;65507;48.454;-2.058;2024-01-30T04:56:33;11.10;86.70
76613;DHT22;65507;48.454;-2.058;2024-01-30T04:59:02;11.10;86.60
76613;DHT22;65507;48.454;-2.058;2024-01-30T05:01:28;11.00;86.50
76613;DHT22;65507;48.454;-2.058;2024-01-30T05:03:53;11.00;86.50
76613;DHT22;65507;48.454;-2.058;2024-01-30T05:06:26;11.00;86.50
76613;DHT22;65507;48.454;-2.058;2024-01-30T05:08:51;11.00;86.50
76613;DHT22;65507;48.454;-2.058;2024-01-30T05:11:17;11.00;86.50
76613;DHT22;65507;48.454;-2.058;2024-01-30T05:13:43;11.00;86.40
76613;DHT22;65507;48.454;-2.058;2024-01-30T05:16:08;11.00;86.40
76613;DHT22;65507;48.454;-2.058;2024-01-30T05:18:34;11.10;86.30
76613;DHT22;65507;48.454;-2.058;2024-01-30T05:21:00;11.10;86.20
76613;DHT22;65507;48.454;-2.058;2024-01-30T05:23:25;11.10;86.10
76613;DHT22;65507;48.454;-2.058;2024-01-30T05:25:51;11.10;86.10
76613;DHT22;65507;48.454;-2.058;2024-01-30T05:28:17;11.10;86.00
76613;DHT22;65507;48.454;-2.058;2024-01-30T05:30:42;11.10;86.00
76613;DHT22;65507;48.454;-2.058;2024-01-30T05:33:08;11.10;85.90
76613;DHT22;65507;48.454;-2.058;2024-01-30T05:35:35;11.10;85.90
76613;DHT22;65507;48.454;-2.058;2024-01-30T05:38:00;11.10;86.00
76613;DHT22;65507;48.454;-2.058;2024-01-30T05:40:26;11.10;85.90
76613;DHT22;65507;48.454;-2.058;2024-01-30T05:42:52;11.10;86.00
76613;DHT22;65507;48.454;-2.058;2024-01-30T05:45:18;11.10;86.00
76613;DHT22;65507;48.454;-2.058;2024-01-30T05:47:44;11.00;86.00
76613;DHT22;65507;48.454;-2.058;2024-01-30T05:50:09;11.00;86.00
76613;DHT22;65507;48.454;-2.058;2024-01-30T05:52:35;11.00;85.90
76613;DHT22;65507;48.454;-2.058;2024-01-30T05:55:01;11.00;85.90
76613;DHT22;65507;48.454;-2.058;2024-01-30T05:57:26;11.00;85.90
76613;DHT22;65507;48.454;-2.058;2024-01-30T05:59:52;11.00;86.00
76613;DHT22;65507;48.454;-2.058;2024-01-30T06:02:18;11.00;86.00
76613;DHT22;65507;48.454;-2.058;2024-01-30T06:04:44;11.00;85.90
76613;DHT22;65507;48.454;-2.058;2024-01-30T06:07:10;11.00;85.90
76613;DHT22;65507;48.454;-2.058;2024-01-30T06:09:35;11.00;85.90
76613;DHT22;65507;48.454;-2.058;2024-01-30T06:12:01;11.00;85.80
76613;DHT22;65507;48.454;-2.058;2024-01-30T06:14:27;11.00;85.80
76613;DHT22;65507;48.454;-2.058;2024-01-30T06:16:52;10.90;85.70
76613;DHT22;65507;48.454;-2.058;2024-01-30T06:19:18;10.90;85.90
76613;DHT22;65507;48.454;-2.058;2024-01-30T06:21:44;10.80;85.90
76613;DHT22;65507;48.454;-2.058;2024-01-30T06:24:10;10.80;86.00
76613;DHT22;65507;48.454;-2.058;2024-01-30T06:26:36;10.80;86.00
76613;DHT22;65507;48.454;-2.058;2024-01-30T06:29:02;10.80;85.90
76613;DHT22;65507;48.454;-2.058;2024-01-30T06:31:27;10.80;85.80
76613;DHT22;65507;48.454;-2.058;2024-01-30T06:33:53;10.80;85.80
76613;DHT22;65507;48.454;-2.058;2024-01-30T06:36:19;10.80;85.80
76613;DHT22;65507;48.454;-2.058;2024-01-30T06:38:45;10.70;85.80
76613;DHT22;65507;48.454;-2.058;2024-01-30T06:41:11;10.70;85.90
76613;DHT22;65507;48.454;-2.058;2024-01-30T06:43:36;10.70;86.00
76613;DHT22;65507;48.454;-2.058;2024-01-30T06:46:02;10.60;86.10
76613;DHT22;65507;48.454;-2.058;2024-01-30T06:48:28;10.50;86.20
76613;DHT22;65507;48.454;-2.058;2024-01-30T06:50:53;10.40;86.20
76613;DHT22;65507;48.454;-2.058;2024-01-30T06:53:20;10.90;86.70
76613;DHT22;65507;48.454;-2.058;2024-01-30T06:55:45;10.20;86.60
76613;DHT22;65507;48.454;-2.058;2024-01-30T06:58:11;10.10;86.70
76613;DHT22;65507;48.454;-2.058;2024-01-30T07:00:37;10.00;86.90
76613;DHT22;65507;48.454;-2.058;2024-01-30T07:03:03;10.00;87.00
76613;DHT22;65507;48.454;-2.058;2024-01-30T07:05:29;9.90;87.00
76613;DHT22;65507;48.454;-2.058;2024-01-30T07:07:54;9.90;87.00
76613;DHT22;65507;48.454;-2.058;2024-01-30T07:10:20;9.90;87.00
76613;DHT22;65507;48.454;-2.058;2024-01-30T07:12:46;9.80;87.00
76613;DHT22;65507;48.454;-2.058;2024-01-30T07:15:12;9.80;87.00
76613;DHT22;65507;48.454;-2.058;2024-01-30T07:17:40;9.80;86.90
76613;DHT22;65507;48.454;-2.058;2024-01-30T07:20:06;9.80;86.90
76613;DHT22;65507;48.454;-2.058;2024-01-30T07:22:33;9.70;86.90
76613;DHT22;65507;48.454;-2.058;2024-01-30T07:24:59;9.60;87.00
76613;DHT22;65507;48.454;-2.058;2024-01-30T07:27:24;9.60;87.40
76613;DHT22;65507;48.454;-2.058;2024-01-30T07:29:50;9.60;87.30
76613;DHT22;65507;48.454;-2.058;2024-01-30T07:32:16;9.60;87.10
76613;DHT22;65507;48.454;-2.058;2024-01-30T07:34:41;9.60;87.00
76613;DHT22;65507;48.454;-2.058;2024-01-30T07:37:07;9.60;87.00
76613;DHT22;65507;48.454;-2.058;2024-01-30T07:39:34;9.60;86.90
76613;DHT22;65507;48.454;-2.058;2024-01-30T07:42:00;9.60;86.90
76613;DHT22;65507;48.454;-2.058;2024-01-30T07:44:26;9.50;86.90
76613;DHT22;65507;48.454;-2.058;2024-01-30T07:46:51;9.50;86.90
76613;DHT22;65507;48.454;-2.058;2024-01-30T07:49:17;9.50;86.90
76613;DHT22;65507;48.454;-2.058;2024-01-30T07:51:43;9.50;86.90
76613;DHT22;65507;48.454;-2.058;2024-01-30T07:54:13;9.50;87.00
76613;DHT22;65507;48.454;-2.058;2024-01-30T07:56:42;9.40;87.00
76613;DHT22;65507;48.454;-2.058;2024-01-30T07:59:10;9.40;87.00
76613;DHT22;65507;48.454;-2.058;2024-01-30T08:01:37;9.40;87.00
76613;DHT22;65507;48.454;-2.058;2024-01-30T08:04:03;9.40;86.90
76613;DHT22;65507;48.454;-2.058;2024-01-30T08:06:28;9.40;87.00
76613;DHT22;65507;48.454;-2.058;2024-01-30T08:08:54;9.40;87.00
76613;DHT22;65507;48.454;-2.058;2024-01-30T08:11:20;9.40;86.90
76613;DHT22;65507;48.454;-2.058;2024-01-30T08:13:51;9.40;86.80
76613;DHT22;65507;48.454;-2.058;2024-01-30T08:16:17;9.50;86.70
76613;DHT22;65507;48.454;-2.058;2024-01-30T08:18:43;9.60;86.60
76613;DHT22;65507;48.454;-2.058;2024-01-30T08:21:09;9.70;86.40
76613;DHT22;65507;48.454;-2.058;2024-01-30T08:23:35;9.80;86.20
76613;DHT22;65507;48.454;-2.058;2024-01-30T08:26:00;9.80;86.00
76613;DHT22;65507;48.454;-2.058;2024-01-30T08:28:26;9.90;85.90
76613;DHT22;65507;48.454;-2.058;2024-01-30T08:30:52;10.00;85.70
76613;DHT22;65507;48.454;-2.058;2024-01-30T08:33:18;10.10;85.60
76613;DHT22;65507;48.454;-2.058;2024-01-30T08:35:44;10.20;85.50
76613;DHT22;65507;48.454;-2.058;2024-01-30T08:38:12;10.20;85.40
76613;DHT22;65507;48.454;-2.058;2024-01-30T08:40:38;10.20;85.30
76613;DHT22;65507;48.454;-2.058;2024-01-30T08:43:04;10.30;86.40
76613;DHT22;65507;48.454;-2.058;2024-01-30T08:45:29;10.30;85.40
76613;DHT22;65507;48.454;-2.058;2024-01-30T08:47:56;10.20;85.40
76613;DHT22;65507;48.454;-2.058;2024-01-30T08:50:22;10.20;85.50
76613;DHT22;65507;48.454;-2.058;2024-01-30T08:52:47;10.20;85.60
76613;DHT22;65507;48.454;-2.058;2024-01-30T08:55:13;10.10;85.60
76613;DHT22;65507;48.454;-2.058;2024-01-30T08:57:39;10.10;85.70
76613;DHT22;65507;48.454;-2.058;2024-01-30T09:00:05;10.10;85.80
76613;DHT22;65507;48.454;-2.058;2024-01-30T09:02:32;10.10;85.80
76613;DHT22;65507;48.454;-2.058;2024-01-30T09:04:58;10.10;85.80
76613;DHT22;65507;48.454;-2.058;2024-01-30T09:07:24;10.20;85.80
76613;DHT22;65507;48.454;-2.058;2024-01-30T09:09:49;10.20;85.70
76613;DHT22;65507;48.454;-2.058;2024-01-30T09:12:15;10.30;85.60
76613;DHT22;65507;48.454;-2.058;2024-01-30T09:14:41;10.30;85.40
76613;DHT22;65507;48.454;-2.058;2024-01-30T09:17:07;10.30;85.30
76613;DHT22;65507;48.454;-2.058;2024-01-30T09:19:33;10.40;85.30
76613;DHT22;65507;48.454;-2.058;2024-01-30T09:21:59;10.40;85.20
76613;DHT22;65507;48.454;-2.058;2024-01-30T09:24:26;10.40;85.20
76613;DHT22;65507;48.454;-2.058;2024-01-30T09:26:52;10.40;85.00
76613;DHT22;65507;48.454;-2.058;2024-01-30T09:29:17;10.50;85.00
76613;DHT22;65507;48.454;-2.058;2024-01-30T09:31:47;10.50;84.90
76613;DHT22;65507;48.454;-2.058;2024-01-30T09:34:13;10.50;84.80
76613;DHT22;65507;48.454;-2.058;2024-01-30T09:36:39;10.60;84.80
76613;DHT22;65507;48.454;-2.058;2024-01-30T09:39:05;10.60;84.80
76613;DHT22;65507;48.454;-2.058;2024-01-30T09:41:32;10.60;84.70
76613;DHT22;65507;48.454;-2.058;2024-01-30T09:44:00;10.70;84.70
76613;DHT22;65507;48.454;-2.058;2024-01-30T09:46:28;10.60;84.60
76613;DHT22;65507;48.454;-2.058;2024-01-30T09:48:57;10.60;84.70
76613;DHT22;65507;48.454;-2.058;2024-01-30T09:51:23;10.60;84.80
76613;DHT22;65507;48.454;-2.058;2024-01-30T09:53:49;10.60;84.80
76613;DHT22;65507;48.454;-2.058;2024-01-30T09:56:15;10.50;84.90
76613;DHT22;65507;48.454;-2.058;2024-01-30T09:58:42;10.60;84.90
76613;DHT22;65507;48.454;-2.058;2024-01-30T10:01:07;10.60;84.70
76613;DHT22;65507;48.454;-2.058;2024-01-30T10:03:33;10.60;84.80
76613;DHT22;65507;48.454;-2.058;2024-01-30T10:06:00;10.70;84.80
76613;DHT22;65507;48.454;-2.058;2024-01-30T10:08:26;10.70;84.80
76613;DHT22;65507;48.454;-2.058;2024-01-30T10:10:52;11.00;84.80
76613;DHT22;65507;48.454;-2.058;2024-01-30T10:13:18;10.90;84.40
76613;DHT22;65507;48.454;-2.058;2024-01-30T10:15:44;11.00;84.20
76613;DHT22;65507;48.454;-2.058;2024-01-30T10:18:10;11.10;84.10
76613;DHT22;65507;48.454;-2.058;2024-01-30T10:20:36;10.90;83.80
76613;DHT22;65507;48.454;-2.058;2024-01-30T10:23:02;11.30;83.90
76613;DHT22;65507;48.454;-2.058;2024-01-30T10:25:30;11.30;83.70
76613;DHT22;65507;48.454;-2.058;2024-01-30T10:27:56;11.40;83.70
76613;DHT22;65507;48.454;-2.058;2024-01-30T10:30:22;11.40;83.60
76613;DHT22;65507;48.454;-2.058;2024-01-30T10:32:48;11.50;83.40
76613;DHT22;65507;48.454;-2.058;2024-01-30T10:35:15;11.50;83.30
76613;DHT22;65507;48.454;-2.058;2024-01-30T10:37:43;11.60;83.20
76613;DHT22;65507;48.454;-2.058;2024-01-30T10:40:12;11.60;83.10
76613;DHT22;65507;48.454;-2.058;2024-01-30T10:42:44;11.60;83.00
76613;DHT22;65507;48.454;-2.058;2024-01-30T10:45:14;11.60;83.10
76613;DHT22;65507;48.454;-2.058;2024-01-30T10:47:47;11.60;83.10
76613;DHT22;65507;48.454;-2.058;2024-01-30T10:50:14;11.50;83.00
76613;DHT22;65507;48.454;-2.058;2024-01-30T10:52:41;12.00;83.40
76613;DHT22;65507;48.454;-2.058;2024-01-30T10:55:08;11.40;83.10
76613;DHT22;65507;48.454;-2.058;2024-01-30T10:57:34;11.40;83.20
76613;DHT22;65507;48.454;-2.058;2024-01-30T11:00:11;11.40;83.30
76613;DHT22;65507;48.454;-2.058;2024-01-30T11:02:45;11.30;83.30
76613;DHT22;65507;48.454;-2.058;2024-01-30T11:05:12;11.30;83.40
76613;DHT22;65507;48.454;-2.058;2024-01-30T11:07:39;11.40;83.30
76613;DHT22;65507;48.454;-2.058;2024-01-30T11:10:08;11.40;83.00
76613;DHT22;65507;48.454;-2.058;2024-01-30T11:12:39;11.40;82.90
76613;DHT22;65507;48.454;-2.058;2024-01-30T11:15:13;11.50;83.00
76613;DHT22;65507;48.454;-2.058;2024-01-30T11:17:43;11.50;82.90
76613;DHT22;65507;48.454;-2.058;2024-01-30T11:20:29;11.50;82.90
76613;DHT22;65507;48.454;-2.058;2024-01-30T11:22:59;11.50;82.70
76613;DHT22;65507;48.454;-2.058;2024-01-30T11:25:25;11.60;82.80
76613;DHT22;65507;48.454;-2.058;2024-01-30T11:27:55;11.50;82.50
76613;DHT22;65507;48.454;-2.058;2024-01-30T11:30:31;11.60;82.70
76613;DHT22;65507;48.454;-2.058;2024-01-30T11:33:14;11.60;82.70
76613;DHT22;65507;48.454;-2.058;2024-01-30T11:35:41;11.70;82.70
76613;DHT22;65507;48.454;-2.058;2024-01-30T11:38:11;11.80;82.50
76613;DHT22;65507;48.454;-2.058;2024-01-30T11:40:39;11.90;82.20
76613;DHT22;65507;48.454;-2.058;2024-01-30T11:43:07;12.00;82.00
76613;DHT22;65507;48.454;-2.058;2024-01-30T11:45:36;12.10;81.90
76613;DHT22;65507;48.454;-2.058;2024-01-30T11:48:03;12.20;81.70
76613;DHT22;65507;48.454;-2.058;2024-01-30T11:50:35;12.20;81.50
76613;DHT22;65507;48.454;-2.058;2024-01-30T11:53:04;12.30;81.30
76613;DHT22;65507;48.454;-2.058;2024-01-30T11:55:30;12.40;81.30
76613;DHT22;65507;48.454;-2.058;2024-01-30T11:57:59;12.40;80.90
76613;DHT22;65507;48.454;-2.058;2024-01-30T12:00:25;12.40;80.90
76613;DHT22;65507;48.454;-2.058;2024-01-30T12:02:53;12.40;80.90
76613;DHT22;65507;48.454;-2.058;2024-01-30T12:05:24;12.40;80.90
76613;DHT22;65507;48.454;-2.058;2024-01-30T12:07:53;12.30;80.90
76613;DHT22;65507;48.454;-2.058;2024-01-30T12:10:19;12.20;80.90
76613;DHT22;65507;48.454;-2.058;2024-01-30T12:12:49;12.10;81.10
76613;DHT22;65507;48.454;-2.058;2024-01-30T12:15:16;12.10;81.00
76613;DHT22;65507;48.454;-2.058;2024-01-30T12:17:42;12.10;80.90
76613;DHT22;65507;48.454;-2.058;2024-01-30T12:20:10;12.00;80.80
76613;DHT22;65507;48.454;-2.058;2024-01-30T12:22:37;12.00;80.80
76613;DHT22;65507;48.454;-2.058;2024-01-30T12:25:20;11.90;80.70
76613;DHT22;65507;48.454;-2.058;2024-01-30T12:27:52;11.90;80.70
76613;DHT22;65507;48.454;-2.058;2024-01-30T12:30:19;11.90;80.70
76613;DHT22;65507;48.454;-2.058;2024-01-30T12:32:47;11.90;80.60
76613;DHT22;65507;48.454;-2.058;2024-01-30T12:35:15;11.90;80.40
76613;DHT22;65507;48.454;-2.058;2024-01-30T12:37:41;11.90;80.40
76613;DHT22;65507;48.454;-2.058;2024-01-30T12:40:08;11.90;80.20
76613;DHT22;65507;48.454;-2.058;2024-01-30T12:42:35;11.80;80.20
76613;DHT22;65507;48.454;-2.058;2024-01-30T12:45:02;11.70;80.20
76613;DHT22;65507;48.454;-2.058;2024-01-30T12:47:29;11.70;80.30
76613;DHT22;65507;48.454;-2.058;2024-01-30T12:49:55;11.60;80.10
76613;DHT22;65507;48.454;-2.058;2024-01-30T12:52:21;11.60;80.10
76613;DHT22;65507;48.454;-2.058;2024-01-30T12:54:48;11.60;80.10
76613;DHT22;65507;48.454;-2.058;2024-01-30T12:57:14;11.70;80.10
76613;DHT22;65507;48.454;-2.058;2024-01-30T12:59:40;11.70;79.90
76613;DHT22;65507;48.454;-2.058;2024-01-30T13:02:06;11.70;79.80
76613;DHT22;65507;48.454;-2.058;2024-01-30T13:04:32;11.80;79.80
76613;DHT22;65507;48.454;-2.058;2024-01-30T13:06:58;11.90;79.50
76613;DHT22;65507;48.454;-2.058;2024-01-30T13:09:24;11.80;79.40
76613;DHT22;65507;48.454;-2.058;2024-01-30T13:11:50;11.90;79.30
76613;DHT22;65507;48.454;-2.058;2024-01-30T13:14:16;11.90;79.30
76613;DHT22;65507;48.454;-2.058;2024-01-30T13:16:42;11.90;79.10
76613;DHT22;65507;48.454;-2.058;2024-01-30T13:19:08;11.90;79.00
76613;DHT22;65507;48.454;-2.058;2024-01-30T13:21:34;11.90;79.50
76613;DHT22;65507;48.454;-2.058;2024-01-30T13:24:00;11.90;78.90
76613;DHT22;65507;48.454;-2.058;2024-01-30T13:26:25;11.90;78.70
76613;DHT22;65507;48.454;-2.058;2024-01-30T13:28:51;11.90;78.50
76613;DHT22;65507;48.454;-2.058;2024-01-30T13:31:17;11.80;78.20
76613;DHT22;65507;48.454;-2.058;2024-01-30T13:33:44;11.90;78.20
76613;DHT22;65507;48.454;-2.058;2024-01-30T13:36:11;11.90;78.10
76613;DHT22;65507;48.454;-2.058;2024-01-30T13:38:37;12.00;78.00
76613;DHT22;65507;48.454;-2.058;2024-01-30T13:41:03;11.90;77.80
76613;DHT22;65507;48.454;-2.058;2024-01-30T13:43:29;11.90;77.70
76613;DHT22;65507;48.454;-2.058;2024-01-30T13:45:55;12.00;77.70
76613;DHT22;65507;48.454;-2.058;2024-01-30T13:48:20;12.00;77.60
76613;DHT22;65507;48.454;-2.058;2024-01-30T13:50:47;12.00;77.40
76613;DHT22;65507;48.454;-2.058;2024-01-30T13:53:13;12.00;77.30
76613;DHT22;65507;48.454;-2.058;2024-01-30T13:55:38;11.90;77.40
76613;DHT22;65507;48.454;-2.058;2024-01-30T13:58:05;11.80;77.50
76613;DHT22;65507;48.454;-2.058;2024-01-30T14:00:32;11.80;77.60
76613;DHT22;65507;48.454;-2.058;2024-01-30T14:02:57;11.90;77.70
76613;DHT22;65507;48.454;-2.058;2024-01-30T14:05:24;11.80;77.60
76613;DHT22;65507;48.454;-2.058;2024-01-30T14:07:54;11.80;77.80
76613;DHT22;65507;48.454;-2.058;2024-01-30T14:10:20;11.70;77.80
76613;DHT22;65507;48.454;-2.058;2024-01-30T14:12:46;11.70;77.90
76613;DHT22;65507;48.454;-2.058;2024-01-30T14:15:14;11.60;77.90
76613;DHT22;65507;48.454;-2.058;2024-01-30T14:17:48;11.60;77.90
76613;DHT22;65507;48.454;-2.058;2024-01-30T14:20:15;11.60;77.80
76613;DHT22;65507;48.454;-2.058;2024-01-30T14:22:43;11.60;77.80
76613;DHT22;65507;48.454;-2.058;2024-01-30T14:25:09;11.70;77.90
76613;DHT22;65507;48.454;-2.058;2024-01-30T14:27:35;11.70;77.90
76613;DHT22;65507;48.454;-2.058;2024-01-30T14:30:01;11.70;77.70
76613;DHT22;65507;48.454;-2.058;2024-01-30T14:32:28;11.60;77.70
76613;DHT22;65507;48.454;-2.058;2024-01-30T14:34:57;11.60;77.80
76613;DHT22;65507;48.454;-2.058;2024-01-30T14:37:23;11.50;77.70
76613;DHT22;65507;48.454;-2.058;2024-01-30T14:39:49;11.50;77.80
76613;DHT22;65507;48.454;-2.058;2024-01-30T14:42:15;11.50;77.80
76613;DHT22;65507;48.454;-2.058;2024-01-30T14:44:41;11.40;77.70
76613;DHT22;65507;48.454;-2.058;2024-01-30T14:47:07;11.40;77.60
76613;DHT22;65507;48.454;-2.058;2024-01-30T14:49:33;11.50;77.50
76613;DHT22;65507;48.454;-2.058;2024-01-30T14:51:59;11.50;77.30
76613;DHT22;65507;48.454;-2.058;2024-01-30T14:54:26;11.60;77.10
76613;DHT22;65507;48.454;-2.058;2024-01-30T14:56:52;11.60;77.10
76613;DHT22;65507;48.454;-2.058;2024-01-30T14:59:18;11.60;77.00
76613;DHT22;65507;48.454;-2.058;2024-01-30T15:01:44;11.70;77.00
76613;DHT22;65507;48.454;-2.058;2024-01-30T15:04:10;11.60;76.90
76613;DHT22;65507;48.454;-2.058;2024-01-30T15:06:36;11.60;77.00
76613;DHT22;65507;48.454;-2.058;2024-01-30T15:09:02;11.60;77.20
76613;DHT22;65507;48.454;-2.058;2024-01-30T15:11:28;11.50;77.20
76613;DHT22;65507;48.454;-2.058;2024-01-30T15:13:54;11.50;77.50